sensor_id;sensor_type;location;lat;lon;timestamp;pressure;altitude;pressure_sealevel;temperature;humidity
34506;BME280;20748;42.632;23.198;2023-02-19T00:02:07;92281.50;;;9.96;45.26
34506;BME280;20748;42.632;23.198;2023-02-19T00:04:39;92285.69;;;9.97;45.74
34506;BME280;20748;42.632;23.198;2023-02-19T00:07:12;92294.25;;;9.97;45.27
34506;BME280;20748;42.632;23.198;2023-02-19T00:09:45;92289.44;;;9.90;44.88
34506;BME280;20748;42.632;23.198;2023-02-19T00:12:17;92289.31;;;9.96;44.89
34506;BME280;20748;42.632;23.198;2023-02-19T00:14:49;92278.63;;;9.97;45.40
34506;BME280;20748;42.632;23.198;2023-02-19T00:17:22;92282.50;;;10.00;45.50
34506;BME280;20748;42.632;23.198;2023-02-19T00:19:54;92287.50;;;9.96;45.45
34506;BME280;20748;42.632;23.198;2023-02-19T00:22:26;92274.66;;;10.00;45.20
34506;BME280;20748;42.632;23.198;2023-02-19T00:24:59;92278.81;;;10.01;45.19
34506;BME280;20748;42.632;23.198;2023-02-19T00:27:32;92272.16;;;10.08;45.48
34506;BME280;20748;42.632;23.198;2023-02-19T00:30:05;92266.56;;;10.01;45.25
34506;BME280;20748;42.632;23.198;2023-02-19T00:32:38;92261.06;;;10.03;45.09
34506;BME280;20748;42.632;23.198;2023-02-19T00:35:14;92265.34;;;10.13;45.51
34506;BME280;20748;42.632;23.198;2023-02-19T00:37:46;92261.38;;;10.15;45.33
34506;BME280;20748;42.632;23.198;2023-02-19T00:40:19;92258.28;;;9.99;45.21
34506;BME280;20748;42.632;23.198;2023-02-19T00:42:52;92253.16;;;9.94;45.50
34506;BME280;20748;42.632;23.198;2023-02-19T00:45:24;92257.56;;;9.93;45.60
34506;BME280;20748;42.632;23.198;2023-02-19T00:47:57;92253.69;;;9.91;45.42
34506;BME280;20748;42.632;23.198;2023-02-19T00:50:29;92265.91;;;10.10;44.98
34506;BME280;20748;42.632;23.198;2023-02-19T00:53:02;92259.06;;;10.14;45.48
34506;BME280;20748;42.632;23.198;2023-02-19T00:55:35;92253.56;;;10.15;44.96
34506;BME280;20748;42.632;23.198;2023-02-19T00:58:07;92257.03;;;10.11;45.11
34506;BME280;20748;42.632;23.198;2023-02-19T01:00:39;92256.16;;;10.15;45.43
34506;BME280;20748;42.632;23.198;2023-02-19T01:03:11;92259.41;;;10.07;44.92
34506;BME280;20748;42.632;23.198;2023-02-19T01:05:45;92274.09;;;10.03;45.42
34506;BME280;20748;42.632;23.198;2023-02-19T01:08:18;92271.19;;;10.04;45.46
34506;BME280;20748;42.632;23.198;2023-02-19T01:10:51;92260.47;;;9.92;45.50
34506;BME280;20748;42.632;23.198;2023-02-19T01:13:25;92261.41;;;9.82;45.54
34506;BME280;20748;42.632;23.198;2023-02-19T01:16:02;92255.84;;;9.56;46.34
34506;BME280;20748;42.632;23.198;2023-02-19T01:18:34;92246.31;;;9.65;46.09
34506;BME280;20748;42.632;23.198;2023-02-19T01:21:08;92232.66;;;9.54;46.04
34506;BME280;20748;42.632;23.198;2023-02-19T01:23:41;92249.66;;;9.51;46.02
34506;BME280;20748;42.632;23.198;2023-02-19T01:26:17;92249.28;;;9.58;46.46
34506;BME280;20748;42.632;23.198;2023-02-19T01:28:51;92255.75;;;9.61;46.15
34506;BME280;20748;42.632;23.198;2023-02-19T01:31:24;92254.09;;;9.51;46.45
34506;BME280;20748;42.632;23.198;2023-02-19T01:33:58;92249.94;;;9.50;46.88
34506;BME280;20748;42.632;23.198;2023-02-19T01:36:32;92253.38;;;9.45;46.29
34506;BME280;20748;42.632;23.198;2023-02-19T01:39:05;92265.31;;;9.32;46.39
34506;BME280;20748;42.632;23.198;2023-02-19T01:41:39;92263.31;;;9.24;47.84
34506;BME280;20748;42.632;23.198;2023-02-19T01:47:22;92267.63;;;9.15;47.62
34506;BME280;20748;42.632;23.198;2023-02-19T01:49:55;92268.19;;;8.92;47.69
34506;BME280;20748;42.632;23.198;2023-02-19T01:52:31;92279.59;;;8.96;48.34
34506;BME280;20748;42.632;23.198;2023-02-19T01:55:06;92278.94;;;8.85;48.30
34506;BME280;20748;42.632;23.198;2023-02-19T01:57:45;92296.06;;;8.67;48.95
34506;BME280;20748;42.632;23.198;2023-02-19T02:00:21;92285.31;;;8.74;48.46
34506;BME280;20748;42.632;23.198;2023-02-19T02:02:58;92294.94;;;8.54;49.74
34506;BME280;20748;42.632;23.198;2023-02-19T02:05:46;92293.34;;;8.53;50.03
34506;BME280;20748;42.632;23.198;2023-02-19T02:08:20;92286.59;;;8.52;49.90
34506;BME280;20748;42.632;23.198;2023-02-19T02:11:10;92285.88;;;8.46;50.03
34506;BME280;20748;42.632;23.198;2023-02-19T02:13:43;92289.28;;;8.42;51.15
34506;BME280;20748;42.632;23.198;2023-02-19T02:16:22;92273.88;;;8.26;51.43
34506;BME280;20748;42.632;23.198;2023-02-19T02:19:03;92292.00;;;8.31;51.33
34506;BME280;20748;42.632;23.198;2023-02-19T02:22:08;92297.53;;;8.25;50.97
34506;BME280;20748;42.632;23.198;2023-02-19T02:25:17;92292.84;;;7.97;51.81
34506;BME280;20748;42.632;23.198;2023-02-19T02:28:04;92296.72;;;8.00;52.32
34506;BME280;20748;42.632;23.198;2023-02-19T02:30:46;92303.03;;;7.93;52.89
34506;BME280;20748;42.632;23.198;2023-02-19T02:33:25;92309.81;;;7.89;53.06
34506;BME280;20748;42.632;23.198;2023-02-19T02:36:04;92301.00;;;7.85;53.42
34506;BME280;20748;42.632;23.198;2023-02-19T02:38:39;92308.88;;;7.80;54.28
34506;BME280;20748;42.632;23.198;2023-02-19T02:41:14;92314.84;;;7.75;53.21
34506;BME280;20748;42.632;23.198;2023-02-19T02:43:47;92314.88;;;7.70;54.12
34506;BME280;20748;42.632;23.198;2023-02-19T02:46:25;92307.13;;;7.65;54.33
34506;BME280;20748;42.632;23.198;2023-02-19T02:49:02;92313.69;;;7.62;53.74
34506;BME280;20748;42.632;23.198;2023-02-19T02:51:40;92316.56;;;7.56;54.19
34506;BME280;20748;42.632;23.198;2023-02-19T02:54:22;92310.59;;;7.55;54.42
34506;BME280;20748;42.632;23.198;2023-02-19T02:57:17;92305.50;;;7.45;55.24
34506;BME280;20748;42.632;23.198;2023-02-19T02:59:54;92306.59;;;7.33;55.39
34506;BME280;20748;42.632;23.198;2023-02-19T03:02:30;92311.81;;;7.28;55.67
34506;BME280;20748;42.632;23.198;2023-02-19T03:05:06;92317.53;;;7.25;56.05
34506;BME280;20748;42.632;23.198;2023-02-19T03:08:03;92321.19;;;7.19;56.07
34506;BME280;20748;42.632;23.198;2023-02-19T03:10:40;92321.22;;;7.14;56.86
34506;BME280;20748;42.632;23.198;2023-02-19T03:13:17;92323.59;;;7.10;56.85
34506;BME280;20748;42.632;23.198;2023-02-19T03:16:14;92330.00;;;6.72;57.88
34506;BME280;20748;42.632;23.198;2023-02-19T03:19:09;92327.09;;;6.79;58.17
34506;BME280;20748;42.632;23.198;2023-02-19T03:21:59;92331.28;;;6.70;58.97
34506;BME280;20748;42.632;23.198;2023-02-19T03:24:35;92335.47;;;6.55;59.82
34506;BME280;20748;42.632;23.198;2023-02-19T03:27:28;92327.53;;;6.26;62.12
34506;BME280;20748;42.632;23.198;2023-02-19T03:30:07;92346.16;;;6.28;63.11
34506;BME280;20748;42.632;23.198;2023-02-19T03:32:46;92348.50;;;6.24;63.25
34506;BME280;20748;42.632;23.198;2023-02-19T03:35:23;92347.75;;;6.18;63.14
34506;BME280;20748;42.632;23.198;2023-02-19T03:38:03;92360.19;;;6.11;64.18
34506;BME280;20748;42.632;23.198;2023-02-19T03:40:43;92356.53;;;6.02;65.10
34506;BME280;20748;42.632;23.198;2023-02-19T03:43:23;92361.22;;;5.95;65.79
34506;BME280;20748;42.632;23.198;2023-02-19T03:46:01;92363.53;;;5.75;66.89
34506;BME280;20748;42.632;23.198;2023-02-19T03:48:45;92355.75;;;5.60;67.60
34506;BME280;20748;42.632;23.198;2023-02-19T03:51:31;92357.84;;;5.63;67.38
34506;BME280;20748;42.632;23.198;2023-02-19T03:54:12;92366.88;;;5.50;68.24
34506;BME280;20748;42.632;23.198;2023-02-19T03:56:49;92356.94;;;5.00;70.45
34506;BME280;20748;42.632;23.198;2023-02-19T03:59:31;92353.34;;;5.06;70.70
34506;BME280;20748;42.632;23.198;2023-02-19T04:02:08;92362.13;;;5.10;71.03
34506;BME280;20748;42.632;23.198;2023-02-19T04:04:46;92360.59;;;5.09;70.66
34506;BME280;20748;42.632;23.198;2023-02-19T04:07:22;92363.97;;;5.10;70.32
34506;BME280;20748;42.632;23.198;2023-02-19T04:09:56;92356.44;;;5.08;70.99
34506;BME280;20748;42.632;23.198;2023-02-19T04:12:29;92356.69;;;5.07;71.20
34506;BME280;20748;42.632;23.198;2023-02-19T04:15:05;92374.78;;;5.07;71.37
34506;BME280;20748;42.632;23.198;2023-02-19T04:17:44;92369.31;;;4.88;72.82
34506;BME280;20748;42.632;23.198;2023-02-19T04:20:19;92367.25;;;4.90;73.18
34506;BME280;20748;42.632;23.198;2023-02-19T04:22:55;92365.94;;;4.87;72.88
34506;BME280;20748;42.632;23.198;2023-02-19T04:25:28;92373.88;;;4.65;73.52
34506;BME280;20748;42.632;23.198;2023-02-19T04:28:01;92373.03;;;4.54;73.38
34506;BME280;20748;42.632;23.198;2023-02-19T04:30:34;92380.78;;;4.54;74.56
34506;BME280;20748;42.632;23.198;2023-02-19T04:33:06;92373.56;;;4.56;74.39
34506;BME280;20748;42.632;23.198;2023-02-19T04:35:39;92386.78;;;4.60;73.45
34506;BME280;20748;42.632;23.198;2023-02-19T04:38:12;92380.00;;;4.48;74.81
34506;BME280;20748;42.632;23.198;2023-02-19T04:40:45;92386.69;;;4.06;76.76
34506;BME280;20748;42.632;23.198;2023-02-19T04:43:17;92362.84;;;3.94;75.54
34506;BME280;20748;42.632;23.198;2023-02-19T04:45:50;92374.72;;;3.95;77.55
34506;BME280;20748;42.632;23.198;2023-02-19T04:48:22;92384.59;;;3.98;77.51
34506;BME280;20748;42.632;23.198;2023-02-19T04:50:55;92393.19;;;3.76;78.68
34506;BME280;20748;42.632;23.198;2023-02-19T04:53:28;92388.53;;;3.78;78.31
34506;BME280;20748;42.632;23.198;2023-02-19T04:56:05;92396.31;;;3.83;78.10
34506;BME280;20748;42.632;23.198;2023-02-19T04:58:38;92389.84;;;3.75;78.70
34506;BME280;20748;42.632;23.198;2023-02-19T05:01:11;92393.31;;;3.59;79.50
34506;BME280;20748;42.632;23.198;2023-02-19T05:03:44;92396.31;;;3.51;79.76
34506;BME280;20748;42.632;23.198;2023-02-19T05:06:17;92401.75;;;3.54;79.64
34506;BME280;20748;42.632;23.198;2023-02-19T05:08:50;92402.84;;;3.58;79.59
34506;BME280;20748;42.632;23.198;2023-02-19T05:11:22;92404.34;;;3.54;79.46
34506;BME280;20748;42.632;23.198;2023-02-19T05:13:55;92402.72;;;3.48;80.05
34506;BME280;20748;42.632;23.198;2023-02-19T05:16:27;92407.88;;;3.43;81.47
34506;BME280;20748;42.632;23.198;2023-02-19T05:18:59;92413.56;;;3.45;80.59
34506;BME280;20748;42.632;23.198;2023-02-19T05:21:32;92405.91;;;3.55;79.90
34506;BME280;20748;42.632;23.198;2023-02-19T05:24:05;92395.59;;;3.55;80.04
34506;BME280;20748;42.632;23.198;2023-02-19T05:26:38;92413.16;;;3.58;80.28
34506;BME280;20748;42.632;23.198;2023-02-19T05:29:10;92404.72;;;3.41;80.30
34506;BME280;20748;42.632;23.198;2023-02-19T05:31:42;92399.09;;;3.44;79.47
34506;BME280;20748;42.632;23.198;2023-02-19T05:34:15;92415.72;;;3.58;79.41
34506;BME280;20748;42.632;23.198;2023-02-19T05:36:47;92418.31;;;3.58;78.89
34506;BME280;20748;42.632;23.198;2023-02-19T05:39:20;92414.38;;;3.51;79.68
34506;BME280;20748;42.632;23.198;2023-02-19T05:41:52;92416.19;;;3.50;81.11
34506;BME280;20748;42.632;23.198;2023-02-19T05:44:25;92419.78;;;3.49;80.93
34506;BME280;20748;42.632;23.198;2023-02-19T05:46:57;92411.31;;;3.54;80.79
34506;BME280;20748;42.632;23.198;2023-02-19T05:49:30;92413.09;;;3.53;81.43
34506;BME280;20748;42.632;23.198;2023-02-19T05:52:02;92419.13;;;3.36;82.61
34506;BME280;20748;42.632;23.198;2023-02-19T05:54:35;92412.28;;;3.47;82.11
34506;BME280;20748;42.632;23.198;2023-02-19T05:57:08;92425.59;;;3.61;82.05
34506;BME280;20748;42.632;23.198;2023-02-19T05:59:40;92430.94;;;3.55;82.16
34506;BME280;20748;42.632;23.198;2023-02-19T06:02:12;92428.13;;;3.56;82.69
34506;BME280;20748;42.632;23.198;2023-02-19T06:04:45;92427.91;;;3.63;82.83
34506;BME280;20748;42.632;23.198;2023-02-19T06:07:17;92432.94;;;3.75;81.53
34506;BME280;20748;42.632;23.198;2023-02-19T06:09:50;92439.13;;;3.74;81.92
34506;BME280;20748;42.632;23.198;2023-02-19T06:12:23;92442.22;;;3.76;82.51
34506;BME280;20748;42.632;23.198;2023-02-19T06:14:55;92442.22;;;3.76;82.52
34506;BME280;20748;42.632;23.198;2023-02-19T06:17:27;92437.16;;;3.86;81.75
34506;BME280;20748;42.632;23.198;2023-02-19T06:20:01;92439.00;;;3.91;82.18
34506;BME280;20748;42.632;23.198;2023-02-19T06:22:33;92433.34;;;3.94;81.38
34506;BME280;20748;42.632;23.198;2023-02-19T06:25:06;92442.41;;;3.97;81.56
34506;BME280;20748;42.632;23.198;2023-02-19T06:27:43;92445.75;;;3.97;81.00
34506;BME280;20748;42.632;23.198;2023-02-19T06:30:15;92440.63;;;4.02;80.98
34506;BME280;20748;42.632;23.198;2023-02-19T06:32:50;92438.38;;;4.11;81.68
34506;BME280;20748;42.632;23.198;2023-02-19T06:35:22;92441.94;;;4.05;83.25
34506;BME280;20748;42.632;23.198;2023-02-19T06:37:55;92441.47;;;4.08;83.52
34506;BME280;20748;42.632;23.198;2023-02-19T06:40:28;92433.53;;;4.20;82.67
34506;BME280;20748;42.632;23.198;2023-02-19T06:43:01;92433.09;;;4.28;82.77
34506;BME280;20748;42.632;23.198;2023-02-19T06:45:33;92429.53;;;4.35;82.05
34506;BME280;20748;42.632;23.198;2023-02-19T06:48:05;92436.00;;;4.37;83.02
34506;BME280;20748;42.632;23.198;2023-02-19T06:50:38;92436.03;;;4.48;83.04
34506;BME280;20748;42.632;23.198;2023-02-19T06:53:10;92442.81;;;4.54;82.60
34506;BME280;20748;42.632;23.198;2023-02-19T06:55:43;92444.16;;;4.62;81.29
34506;BME280;20748;42.632;23.198;2023-02-19T06:58:15;92434.38;;;4.69;81.16
34506;BME280;20748;42.632;23.198;2023-02-19T07:00:48;92440.34;;;4.75;81.49
34506;BME280;20748;42.632;23.198;2023-02-19T07:03:20;92440.91;;;4.82;81.00
34506;BME280;20748;42.632;23.198;2023-02-19T07:05:53;92439.41;;;4.91;80.84
34506;BME280;20748;42.632;23.198;2023-02-19T07:08:25;92436.88;;;5.07;79.54
34506;BME280;20748;42.632;23.198;2023-02-19T07:11:01;92440.56;;;5.21;78.92
34506;BME280;20748;42.632;23.198;2023-02-19T07:13:33;92434.91;;;5.35;78.29
34506;BME280;20748;42.632;23.198;2023-02-19T07:16:07;92438.56;;;5.44;78.15
34506;BME280;20748;42.632;23.198;2023-02-19T07:18:41;92436.53;;;5.62;76.19
34506;BME280;20748;42.632;23.198;2023-02-19T07:21:14;92446.66;;;5.79;74.69
34506;BME280;20748;42.632;23.198;2023-02-19T07:23:47;92445.16;;;6.04;73.11
34506;BME280;20748;42.632;23.198;2023-02-19T07:26:20;92443.09;;;6.32;72.13
34506;BME280;20748;42.632;23.198;2023-02-19T07:28:53;92438.66;;;6.58;70.75
34506;BME280;20748;42.632;23.198;2023-02-19T07:31:25;92433.72;;;6.78;69.94
34506;BME280;20748;42.632;23.198;2023-02-19T07:33:58;92432.56;;;7.05;70.07
34506;BME280;20748;42.632;23.198;2023-02-19T07:36:30;92430.66;;;7.31;68.54
34506;BME280;20748;42.632;23.198;2023-02-19T07:39:02;92436.78;;;7.56;65.42
34506;BME280;20748;42.632;23.198;2023-02-19T07:41:36;92440.53;;;7.85;65.01
34506;BME280;20748;42.632;23.198;2023-02-19T07:44:08;92445.53;;;8.11;61.66
34506;BME280;20748;42.632;23.198;2023-02-19T07:46:44;92441.19;;;8.36;60.86
34506;BME280;20748;42.632;23.198;2023-02-19T07:49:16;92436.34;;;8.58;57.39
34506;BME280;20748;42.632;23.198;2023-02-19T07:51:49;92435.91;;;8.81;56.64
34506;BME280;20748;42.632;23.198;2023-02-19T07:54:21;92443.97;;;9.04;56.78
34506;BME280;20748;42.632;23.198;2023-02-19T07:56:54;92426.06;;;9.21;56.84
34506;BME280;20748;42.632;23.198;2023-02-19T07:59:27;92427.66;;;9.42;56.48
34506;BME280;20748;42.632;23.198;2023-02-19T08:01:59;92428.75;;;9.60;53.78
34506;BME280;20748;42.632;23.198;2023-02-19T08:04:49;92424.69;;;9.73;53.90
34506;BME280;20748;42.632;23.198;2023-02-19T08:07:22;92415.28;;;9.91;53.34
34506;BME280;20748;42.632;23.198;2023-02-19T08:09:54;92418.41;;;9.93;52.27
34506;BME280;20748;42.632;23.198;2023-02-19T08:12:57;92429.25;;;10.00;51.18
34506;BME280;20748;42.632;23.198;2023-02-19T08:15:52;92423.31;;;10.14;50.93
34506;BME280;20748;42.632;23.198;2023-02-19T08:18:32;92423.75;;;10.35;51.06
34506;BME280;20748;42.632;23.198;2023-02-19T08:21:04;92422.69;;;10.55;50.34
34506;BME280;20748;42.632;23.198;2023-02-19T08:23:37;92423.66;;;10.59;49.56
34506;BME280;20748;42.632;23.198;2023-02-19T08:26:10;92428.13;;;10.73;49.19
34506;BME280;20748;42.632;23.198;2023-02-19T08:28:43;92428.81;;;10.93;49.27
34506;BME280;20748;42.632;23.198;2023-02-19T08:31:16;92425.38;;;11.11;48.41
34506;BME280;20748;42.632;23.198;2023-02-19T08:33:48;92430.28;;;11.27;47.88
34506;BME280;20748;42.632;23.198;2023-02-19T08:36:21;92435.97;;;11.43;47.60
34506;BME280;20748;42.632;23.198;2023-02-19T08:38:53;92429.78;;;11.53;47.78
34506;BME280;20748;42.632;23.198;2023-02-19T08:41:26;92421.78;;;11.72;46.44
34506;BME280;20748;42.632;23.198;2023-02-19T08:43:59;92426.56;;;11.70;46.54
34506;BME280;20748;42.632;23.198;2023-02-19T08:46:32;92433.69;;;11.78;46.19
34506;BME280;20748;42.632;23.198;2023-02-19T08:49:05;92433.06;;;11.59;46.13
34506;BME280;20748;42.632;23.198;2023-02-19T08:51:38;92421.53;;;11.60;47.03
34506;BME280;20748;42.632;23.198;2023-02-19T08:54:10;92413.88;;;11.63;47.08
34506;BME280;20748;42.632;23.198;2023-02-19T08:56:42;92413.56;;;11.79;47.19
34506;BME280;20748;42.632;23.198;2023-02-19T08:59:15;92416.34;;;11.82;47.82
34506;BME280;20748;42.632;23.198;2023-02-19T09:01:48;92407.25;;;11.80;47.99
34506;BME280;20748;42.632;23.198;2023-02-19T09:04:20;92405.06;;;11.73;48.23
34506;BME280;20748;42.632;23.198;2023-02-19T09:06:53;92400.06;;;12.00;48.67
34506;BME280;20748;42.632;23.198;2023-02-19T09:09:25;92393.13;;;12.18;48.31
34506;BME280;20748;42.632;23.198;2023-02-19T09:11:57;92390.75;;;11.93;47.98
34506;BME280;20748;42.632;23.198;2023-02-19T09:14:39;92393.00;;;12.23;46.73
34506;BME280;20748;42.632;23.198;2023-02-19T09:17:11;92380.97;;;11.99;47.17
34506;BME280;20748;42.632;23.198;2023-02-19T09:19:43;92386.56;;;12.29;46.46
34506;BME280;20748;42.632;23.198;2023-02-19T09:22:16;92387.66;;;12.28;46.98
34506;BME280;20748;42.632;23.198;2023-02-19T09:24:48;92379.47;;;12.53;46.86
34506;BME280;20748;42.632;23.198;2023-02-19T09:27:20;92385.09;;;12.37;45.58
34506;BME280;20748;42.632;23.198;2023-02-19T09:29:53;92376.16;;;12.38;45.42
34506;BME280;20748;42.632;23.198;2023-02-19T09:32:29;92376.72;;;12.58;45.28
34506;BME280;20748;42.632;23.198;2023-02-19T09:35:01;92375.16;;;12.88;44.63
34506;BME280;20748;42.632;23.198;2023-02-19T09:37:33;92377.84;;;13.06;44.39
34506;BME280;20748;42.632;23.198;2023-02-19T09:40:06;92366.63;;;13.32;45.24
34506;BME280;20748;42.632;23.198;2023-02-19T09:42:41;92369.31;;;13.50;43.74
34506;BME280;20748;42.632;23.198;2023-02-19T09:45:20;92352.06;;;13.58;43.08
34506;BME280;20748;42.632;23.198;2023-02-19T09:47:55;92362.97;;;13.42;42.78
34506;BME280;20748;42.632;23.198;2023-02-19T09:50:32;92353.94;;;13.57;43.43
34506;BME280;20748;42.632;23.198;2023-02-19T09:53:13;92343.75;;;13.82;42.54
34506;BME280;20748;42.632;23.198;2023-02-19T09:55:47;92347.75;;;13.71;42.85
34506;BME280;20748;42.632;23.198;2023-02-19T09:58:23;92342.63;;;14.09;43.08
34506;BME280;20748;42.632;23.198;2023-02-19T10:01:00;92324.72;;;14.12;41.65
34506;BME280;20748;42.632;23.198;2023-02-19T10:03:36;92319.97;;;14.14;42.23
34506;BME280;20748;42.632;23.198;2023-02-19T10:06:15;92309.22;;;14.45;42.27
34506;BME280;20748;42.632;23.198;2023-02-19T10:08:53;92309.19;;;14.54;41.69
34506;BME280;20748;42.632;23.198;2023-02-19T10:11:26;92300.47;;;14.71;41.38
34506;BME280;20748;42.632;23.198;2023-02-19T10:14:03;92291.25;;;14.95;40.39
34506;BME280;20748;42.632;23.198;2023-02-19T10:16:42;92288.03;;;15.20;40.14
34506;BME280;20748;42.632;23.198;2023-02-19T10:19:16;92287.38;;;15.23;39.45
34506;BME280;20748;42.632;23.198;2023-02-19T10:21:48;92298.38;;;15.25;39.15
34506;BME280;20748;42.632;23.198;2023-02-19T10:24:24;92290.66;;;15.20;39.00
34506;BME280;20748;42.632;23.198;2023-02-19T10:26:58;92283.53;;;15.41;39.61
34506;BME280;20748;42.632;23.198;2023-02-19T10:29:30;92282.91;;;15.44;39.33
34506;BME280;20748;42.632;23.198;2023-02-19T10:32:15;92274.38;;;15.48;39.60
34506;BME280;20748;42.632;23.198;2023-02-19T10:35:11;92275.44;;;15.68;39.14
34506;BME280;20748;42.632;23.198;2023-02-19T10:37:45;92272.00;;;15.76;38.57
34506;BME280;20748;42.632;23.198;2023-02-19T10:40:21;92259.81;;;15.50;39.28
34506;BME280;20748;42.632;23.198;2023-02-19T10:42:56;92253.13;;;15.74;38.58
34506;BME280;20748;42.632;23.198;2023-02-19T10:45:33;92246.03;;;15.53;39.29
34506;BME280;20748;42.632;23.198;2023-02-19T10:48:22;92247.56;;;15.54;38.96
34506;BME280;20748;42.632;23.198;2023-02-19T10:50:58;92234.88;;;15.35;38.58
34506;BME280;20748;42.632;23.198;2023-02-19T10:53:42;92236.28;;;15.33;39.26
34506;BME280;20748;42.632;23.198;2023-02-19T10:56:22;92226.69;;;15.70;38.56
34506;BME280;20748;42.632;23.198;2023-02-19T10:58:55;92225.59;;;15.71;37.86
34506;BME280;20748;42.632;23.198;2023-02-19T11:01:54;92211.66;;;15.59;38.27
34506;BME280;20748;42.632;23.198;2023-02-19T11:04:28;92214.28;;;15.59;38.14
34506;BME280;20748;42.632;23.198;2023-02-19T11:07:08;92217.31;;;15.82;38.75
34506;BME280;20748;42.632;23.198;2023-02-19T11:09:43;92211.19;;;15.56;39.16
34506;BME280;20748;42.632;23.198;2023-02-19T11:12:24;92195.63;;;15.85;38.08
34506;BME280;20748;42.632;23.198;2023-02-19T11:15:03;92198.28;;;15.51;38.57
34506;BME280;20748;42.632;23.198;2023-02-19T11:17:44;92193.63;;;15.82;38.63
34506;BME280;20748;42.632;23.198;2023-02-19T11:20:17;92190.94;;;15.23;37.51
34506;BME280;20748;42.632;23.198;2023-02-19T11:22:50;92183.16;;;15.27;37.80
34506;BME280;20748;42.632;23.198;2023-02-19T11:25:22;92185.59;;;15.32;38.08
34506;BME280;20748;42.632;23.198;2023-02-19T11:27:59;92172.56;;;15.69;39.40
34506;BME280;20748;42.632;23.198;2023-02-19T11:30:37;92173.00;;;15.71;36.93
34506;BME280;20748;42.632;23.198;2023-02-19T11:33:20;92161.69;;;16.17;36.72
34506;BME280;20748;42.632;23.198;2023-02-19T11:36:03;92157.97;;;16.18;35.82
34506;BME280;20748;42.632;23.198;2023-02-19T11:38:48;92161.78;;;15.96;35.95
34506;BME280;20748;42.632;23.198;2023-02-19T11:41:32;92159.00;;;15.80;35.01
34506;BME280;20748;42.632;23.198;2023-02-19T11:44:19;92150.16;;;16.09;35.35
34506;BME280;20748;42.632;23.198;2023-02-19T11:47:06;92138.03;;;15.59;35.84
34506;BME280;20748;42.632;23.198;2023-02-19T11:49:52;92144.47;;;15.49;35.93
34506;BME280;20748;42.632;23.198;2023-02-19T11:52:35;92142.00;;;15.77;36.66
34506;BME280;20748;42.632;23.198;2023-02-19T11:55:16;92142.03;;;15.43;36.08
34506;BME280;20748;42.632;23.198;2023-02-19T11:57:57;92132.09;;;15.62;35.85
34506;BME280;20748;42.632;23.198;2023-02-19T12:00:43;92127.94;;;15.61;36.03
34506;BME280;20748;42.632;23.198;2023-02-19T12:06:31;92126.91;;;15.87;34.76
34506;BME280;20748;42.632;23.198;2023-02-19T12:09:18;92127.16;;;16.06;34.51
34506;BME280;20748;42.632;23.198;2023-02-19T12:12:08;92119.03;;;16.36;35.28
34506;BME280;20748;42.632;23.198;2023-02-19T12:21:40;92108.06;;;16.47;34.04
34506;BME280;20748;42.632;23.198;2023-02-19T12:24:48;92096.53;;;16.80;34.30
34506;BME280;20748;42.632;23.198;2023-02-19T12:27:36;92085.81;;;17.01;34.25
34506;BME280;20748;42.632;23.198;2023-02-19T12:30:22;92067.97;;;17.23;33.70
34506;BME280;20748;42.632;23.198;2023-02-19T12:36:02;92065.91;;;17.16;32.91
34506;BME280;20748;42.632;23.198;2023-02-19T12:38:42;92062.34;;;17.09;33.27
34506;BME280;20748;42.632;23.198;2023-02-19T12:41:26;92059.25;;;17.07;33.18
34506;BME280;20748;42.632;23.198;2023-02-19T12:44:04;92054.13;;;17.42;32.15
34506;BME280;20748;42.632;23.198;2023-02-19T12:46:44;92050.81;;;17.45;32.05
34506;BME280;20748;42.632;23.198;2023-02-19T12:49:24;92043.53;;;17.10;32.18
34506;BME280;20748;42.632;23.198;2023-02-19T12:51:59;92038.81;;;17.32;32.34
34506;BME280;20748;42.632;23.198;2023-02-19T12:54:37;92027.25;;;16.92;32.10
34506;BME280;20748;42.632;23.198;2023-02-19T12:57:15;92032.25;;;16.69;32.63
34506;BME280;20748;42.632;23.198;2023-02-19T12:59:52;92036.34;;;16.95;33.19
34506;BME280;20748;42.632;23.198;2023-02-19T13:02:29;92021.38;;;17.27;32.57
34506;BME280;20748;42.632;23.198;2023-02-19T13:05:07;92025.78;;;17.39;32.66
34506;BME280;20748;42.632;23.198;2023-02-19T13:07:54;92016.53;;;17.45;31.85
34506;BME280;20748;42.632;23.198;2023-02-19T13:10:32;92016.19;;;17.79;32.70
34506;BME280;20748;42.632;23.198;2023-02-19T13:13:12;92009.47;;;17.50;31.67
34506;BME280;20748;42.632;23.198;2023-02-19T13:15:49;92004.88;;;17.63;31.42
34506;BME280;20748;42.632;23.198;2023-02-19T13:18:26;91999.78;;;17.38;31.97
34506;BME280;20748;42.632;23.198;2023-02-19T13:21:01;91997.91;;;17.70;32.04
34506;BME280;20748;42.632;23.198;2023-02-19T13:23:36;91988.84;;;17.88;32.08
34506;BME280;20748;42.632;23.198;2023-02-19T13:26:47;91987.81;;;18.08;31.90
34506;BME280;20748;42.632;23.198;2023-02-19T13:29:34;91975.47;;;17.96;32.21
34506;BME280;20748;42.632;23.198;2023-02-19T13:32:25;91969.06;;;17.62;31.80
34506;BME280;20748;42.632;23.198;2023-02-19T13:35:15;91972.09;;;17.80;31.84
34506;BME280;20748;42.632;23.198;2023-02-19T13:37:52;91970.03;;;17.89;32.16
34506;BME280;20748;42.632;23.198;2023-02-19T13:40:29;91965.44;;;17.86;31.56
34506;BME280;20748;42.632;23.198;2023-02-19T13:43:04;91964.53;;;18.14;30.75
34506;BME280;20748;42.632;23.198;2023-02-19T13:45:39;91966.84;;;18.16;31.45
34506;BME280;20748;42.632;23.198;2023-02-19T13:48:23;91969.56;;;18.03;31.11
34506;BME280;20748;42.632;23.198;2023-02-19T13:54:24;91952.94;;;18.19;30.89
34506;BME280;20748;42.632;23.198;2023-02-19T13:57:27;91956.25;;;17.80;30.96
34506;BME280;20748;42.632;23.198;2023-02-19T14:00:00;91952.69;;;17.72;31.39
34506;BME280;20748;42.632;23.198;2023-02-19T14:02:33;91939.31;;;17.81;31.39
34506;BME280;20748;42.632;23.198;2023-02-19T14:05:09;91938.63;;;17.84;31.60